Terminal Aerodrome Forecast
Issued by NWS

Home | Current Version | Previous Version | Text Only | Print | Product List | Glossary On
Versions: 1 2 3 4 5 6 7 8 9 10 11 12 13 14 15 16 17 18 19 20 21 22 23 24 25 26 27 28 29 30 31 32 33 34 35
000
FTPA31 PHFO 280500
TAFITO
TAF
PHTO 280522Z 2806/2906 32006KT 6SM BR SCT022 BKN035
      TEMPO 2806/2810 3SM -RA BR SCT005 BKN018
     FM282000 08008KT P6SM SCT030 BKN040
     FM290400 VRB03KT P6SM SCT030 BKN040=

USA.gov is the U.S. government's official web portal to all federal, state and local government web resources and services.